Time;durP1;ratioP1;P1;durP2;ratioP2;P2;SDS_P1;SDS_P2;PMS_P1;PMS_P2;Temp;Humidity;BMP_temperature;BMP_pressure;BME280_temperature;BME280_humidity;BME280_pressure;Samples;Min_cycle;Max_cycle;Signal;HPM_P1;HPM_P2
2022/03/16 00:11:13;;;;;;;0.03;0.03;;;;;;;5.88;56.76;100112.75;5804155;23;20396;31
2022/03/16 00:24:17;;;;;;;0.00;0.00;;;;;;;5.80;57.59;100102.38;5810540;23;20048;31
2022/03/16 00:40:10;;;;;;;0.00;0.00;;;;;;;5.74;57.92;100069.56;4899242;29;19915;-81
2022/03/16 01:13:55;;;;;;;0.00;0.00;;;;;;;5.63;58.96;100057.00;5008038;23;20044;-81
2022/03/16 01:38:39;;;;;;;0.00;0.00;;;;;;;5.45;58.97;100031.25;5958300;23;20074;31
2022/03/16 02:34:24;;;;;;;0.00;0.00;;;;;;;5.26;59.89;99967.53;5633552;23;20083;31
2022/03/16 03:36:21;;;;;;;0.00;0.00;;;;;;;4.84;60.92;99908.16;5715394;23;20935;31
2022/03/16 04:11:53;;;;;;;0.05;0.05;;;;;;;4.92;61.90;99914.00;5136388;23;20056;-80
2022/03/16 05:13:22;;;;;;;0.00;0.00;;;;;;;4.32;64.71;99864.09;4951109;23;20137;-79
2022/03/16 05:25:25;;;;;;;0.00;0.00;;;;;;;4.39;65.08;99858.78;5977954;23;20023;31
2022/03/16 05:34:28;;;;;;;0.00;0.00;;;;;;;4.39;65.15;99856.13;4879184;29;20046;-80
2022/03/16 05:36:54;;;;;;;0.38;0.38;;;;;;;4.40;64.95;99857.75;4878748;29;20064;-78
2022/03/16 05:39:19;;;;;;;0.00;0.00;;;;;;;4.41;64.95;99862.03;4874088;29;20068;-78
2022/03/16 05:41:45;;;;;;;0.38;0.38;;;;;;;4.44;64.77;99858.94;4874540;29;20029;-79
2022/03/16 05:44:10;;;;;;;0.00;0.00;;;;;;;4.44;64.99;99845.69;4875760;29;20093;-79
2022/03/16 05:46:36;;;;;;;0.05;0.05;;;;;;;4.45;64.90;99842.00;4875053;29;20105;-78
2022/03/16 05:49:01;;;;;;;0.00;0.00;;;;;;;4.47;65.18;99847.91;4874904;29;20036;-80
2022/03/16 05:51:27;;;;;;;0.20;0.20;;;;;;;4.50;65.08;99855.41;4844459;29;20075;-80
2022/03/16 05:53:53;;;;;;;0.00;0.00;;;;;;;4.56;64.76;99870.44;4874154;29;20498;-78
2022/03/16 05:56:18;;;;;;;0.00;0.00;;;;;;;4.59;65.03;99858.59;4874800;29;20470;-80
2022/03/16 05:58:43;;;;;;;0.00;0.00;;;;;;;4.60;64.82;99850.47;4874221;29;20620;-80
2022/03/16 06:01:09;;;;;;;0.00;0.00;;;;;;;4.59;64.82;99840.06;4874359;29;20034;-79
2022/03/16 06:03:34;;;;;;;0.00;0.00;;;;;;;4.58;64.76;99851.72;4874545;29;20413;-79
2022/03/16 06:06:00;;;;;;;0.00;0.00;;;;;;;4.55;65.06;99855.56;4874331;29;20500;-79
2022/03/16 06:08:25;;;;;;;0.00;0.00;;;;;;;4.59;65.48;99858.59;4843232;29;20033;-79
2022/03/16 06:10:51;;;;;;;0.00;0.00;;;;;;;4.50;66.01;99842.16;4842710;29;20410;-79
2022/03/16 06:13:17;;;;;;;0.55;0.55;;;;;;;4.46;66.28;99839.13;4874234;29;20034;-79
2022/03/16 06:15:43;;;;;;;0.00;0.00;;;;;;;4.50;65.95;99836.88;4874036;29;20505;-80
2022/03/16 06:18:11;;;;;;;0.28;0.28;;;;;;;4.53;66.00;99841.75;4843065;29;20033;-79
2022/03/16 06:20:36;;;;;;;0.00;0.00;;;;;;;4.58;65.64;99836.59;4873917;29;20052;-78
2022/03/16 06:23:05;;;;;;;0.00;0.00;;;;;;;4.65;65.68;99831.25;4842962;29;20469;-79
2022/03/16 06:25:34;;;;;;;0.00;0.00;;;;;;;4.68;65.69;99830.81;4874259;29;20068;-79
2022/03/16 06:27:59;;;;;;;0.00;0.00;;;;;;;4.73;65.26;99827.53;4842690;29;20041;-79
2022/03/16 06:30:25;;;;;;;0.00;0.00;;;;;;;4.78;65.41;99832.97;4873260;29;20136;-78
2022/03/16 06:32:51;;;;;;;0.20;0.20;;;;;;;4.83;65.62;99827.81;4874158;29;20025;-78
2022/03/16 06:35:17;;;;;;;0.00;0.00;;;;;;;4.87;65.63;99823.72;4874014;29;20131;-79
2022/03/16 06:37:44;;;;;;;0.00;0.00;;;;;;;4.91;64.89;99827.53;4873746;29;20062;-79
2022/03/16 06:40:10;;;;;;;0.00;0.00;;;;;;;4.87;65.09;99831.69;4874003;29;20496;-79
2022/03/16 06:42:50;;;;;;;0.00;0.00;;;;;;;4.79;65.48;99846.00;4874514;29;20041;-78
2022/03/16 06:45:17;;;;;;;0.60;0.60;;;;;;;4.82;65.33;99839.44;4874298;29;20184;-78
2022/03/16 06:47:42;;;;;;;0.30;0.30;;;;;;;4.84;65.77;99832.09;4842933;29;20586;-79
2022/03/16 06:50:09;;;;;;;0.47;0.47;;;;;;;4.86;65.49;99847.78;4859662;29;20105;-79
2022/03/16 06:52:34;;;;;;;0.00;0.00;;;;;;;4.87;65.83;99838.78;4873522;29;20037;-78
2022/03/16 06:55:00;;;;;;;0.00;0.00;;;;;;;4.99;65.36;99841.53;4873365;29;20033;-79
2022/03/16 06:57:25;;;;;;;0.20;0.20;;;;;;;5.04;65.19;99834.56;4873863;29;20036;-78
2022/03/16 06:59:51;;;;;;;0.20;0.20;;;;;;;5.07;64.56;99833.31;4873133;29;20038;-79
2022/03/16 07:02:17;;;;;;;1.33;1.10;;;;;;;5.11;64.92;99831.84;4842837;29;20048;-78
2022/03/16 07:04:42;;;;;;;1.80;1.00;;;;;;;5.07;64.97;99807.59;4873365;29;20030;-79
2022/03/16 07:07:08;;;;;;;0.00;0.00;;;;;;;5.05;64.45;99804.34;4873310;29;20037;-78
2022/03/16 07:09:33;;;;;;;1.13;0.95;;;;;;;5.05;64.93;99820.25;4873329;29;20037;-78
2022/03/16 07:11:59;;;;;;;0.20;0.20;;;;;;;5.11;64.80;99810.63;4872488;29;20030;-78
2022/03/16 07:14:30;;;;;;;0.17;0.17;;;;;;;5.16;65.02;99813.41;4842500;29;20033;-79
2022/03/16 07:16:58;;;;;;;0.00;0.00;;;;;;;5.19;64.35;99802.38;4872684;29;20050;-79
2022/03/16 07:19:24;;;;;;;1.65;0.80;;;;;;;5.26;64.36;99794.31;4842312;29;20038;-78
2022/03/16 07:21:49;;;;;;;0.10;0.10;;;;;;;5.27;64.89;99796.78;4875729;29;20510;-79
2022/03/16 07:24:14;;;;;;;0.38;0.38;;;;;;;5.25;65.01;99790.88;4876768;29;20033;-79
2022/03/16 07:26:40;;;;;;;0.17;0.17;;;;;;;5.23;65.46;99787.63;4876842;29;20040;-79
2022/03/16 07:29:06;;;;;;;0.00;0.00;;;;;;;5.19;65.70;99785.63;4876410;29;20157;-79
2022/03/16 07:31:32;;;;;;;0.17;0.17;;;;;;;5.17;65.90;99779.78;4876930;29;20566;-79
2022/03/16 07:33:57;;;;;;;0.45;0.40;;;;;;;5.11;66.23;99792.88;4845934;29;20041;-79
2022/03/16 07:36:23;;;;;;;0.20;0.20;;;;;;;5.03;66.47;99797.66;4876922;29;20030;-79
2022/03/16 07:38:49;;;;;;;0.00;0.00;;;;;;;5.09;66.39;99802.06;4845776;29;20179;-79
2022/03/16 07:41:15;;;;;;;0.10;0.10;;;;;;;4.99;66.59;99791.97;4876845;29;20474;-79
2022/03/16 07:43:41;;;;;;;0.00;0.00;;;;;;;4.95;67.10;99788.16;4876572;29;20033;-79
2022/03/16 07:46:07;;;;;;;0.10;0.10;;;;;;;4.91;67.27;99790.44;4876674;29;20038;-79
2022/03/16 07:48:34;;;;;;;0.60;0.60;;;;;;;4.92;67.98;99791.22;4845755;29;20158;-77
2022/03/16 07:51:00;;;;;;;0.50;0.50;;;;;;;4.85;67.42;99788.66;4876275;29;20030;-79
2022/03/16 07:53:26;;;;;;;0.00;0.00;;;;;;;4.87;67.49;99786.63;4876349;29;20053;-79
2022/03/16 07:55:55;;;;;;;0.00;0.00;;;;;;;4.87;67.29;99789.28;4845544;29;20124;-79
2022/03/16 07:58:21;;;;;;;0.35;0.35;;;;;;;4.93;67.10;99782.25;4876546;29;20445;-79
2022/03/16 08:00:46;;;;;;;0.00;0.00;;;;;;;4.97;67.44;99783.47;4862457;29;20041;-79
2022/03/16 08:03:13;;;;;;;0.45;0.45;;;;;;;5.04;66.89;99783.38;4876298;29;20091;-79
2022/03/16 08:05:39;;;;;;;0.13;0.13;;;;;;;5.07;67.11;99777.63;4845483;29;20033;-79
2022/03/16 08:08:05;;;;;;;0.00;0.00;;;;;;;5.13;67.47;99779.41;4845373;29;20029;-79
2022/03/16 08:10:31;;;;;;;0.10;0.10;;;;;;;5.14;67.43;99775.72;4876296;29;20093;-77
2022/03/16 08:12:56;;;;;;;0.00;0.00;;;;;;;5.19;67.61;99780.34;4875951;29;20149;-79
2022/03/16 08:15:22;;;;;;;0.52;0.52;;;;;;;5.24;66.96;99775.19;4876236;29;20081;-79
2022/03/16 08:17:47;;;;;;;0.00;0.00;;;;;;;5.28;67.35;99771.06;4875977;29;20040;-78
2022/03/16 08:20:12;;;;;;;0.00;0.00;;;;;;;5.32;67.55;99772.22;4876181;29;20029;-77
2022/03/16 08:22:38;;;;;;;0.00;0.00;;;;;;;5.40;66.94;99771.13;4845198;29;20037;-78
2022/03/16 08:25:06;;;;;;;0.47;0.47;;;;;;;5.47;67.11;99773.69;4876274;29;20034;-80
2022/03/16 08:27:34;;;;;;;0.10;0.10;;;;;;;5.54;67.14;99758.47;4876129;29;20033;-79
2022/03/16 08:30:00;;;;;;;0.10;0.10;;;;;;;5.66;66.59;99764.63;4872438;29;20578;-79
2022/03/16 08:32:25;;;;;;;0.05;0.05;;;;;;;5.71;67.09;99770.09;4871979;29;20374;-77
2022/03/16 08:34:51;;;;;;;0.08;0.08;;;;;;;5.75;66.48;99758.00;4872545;29;20109;-79
2022/03/16 08:37:18;;;;;;;0.05;0.05;;;;;;;5.88;66.53;99766.78;4841980;29;20030;-79
2022/03/16 08:39:44;;;;;;;2.20;1.00;;;;;;;5.99;66.50;99758.06;4872725;29;20040;-79
2022/03/16 08:42:11;;;;;;;0.00;0.00;;;;;;;6.01;66.24;99741.94;4841425;29;20094;-79
2022/03/16 08:44:37;;;;;;;0.00;0.00;;;;;;;6.15;65.97;99753.97;4841989;29;20073;-79
2022/03/16 08:47:03;;;;;;;0.35;0.35;;;;;;;6.24;65.99;99757.09;4872384;29;20029;-80
2022/03/16 08:49:29;;;;;;;0.00;0.00;;;;;;;6.34;65.37;99749.34;4841740;29;20418;-79
2022/03/16 08:51:56;;;;;;;0.00;0.00;;;;;;;6.45;65.24;99750.38;4872268;29;20065;-79
2022/03/16 08:54:22;;;;;;;0.00;0.00;;;;;;;6.52;64.58;99760.91;4872589;29;20045;-79
2022/03/16 08:56:48;;;;;;;0.00;0.00;;;;;;;6.60;64.55;99757.09;4841439;29;20037;-79
2022/03/16 08:59:14;;;;;;;0.10;0.10;;;;;;;6.64;65.02;99764.38;4843131;29;20026;-79
2022/03/16 09:01:39;;;;;;;0.00;0.00;;;;;;;6.70;64.41;99758.13;4841352;29;20125;-77
2022/03/16 09:04:05;;;;;;;0.00;0.00;;;;;;;6.76;64.31;99753.72;4872013;29;20033;-79
2022/03/16 09:06:30;;;;;;;0.00;0.00;;;;;;;6.79;64.08;99750.59;4872352;29;20070;-79
2022/03/16 09:08:56;;;;;;;0.32;0.32;;;;;;;6.83;64.23;99750.94;4871954;29;20034;-79
2022/03/16 09:11:21;;;;;;;0.20;0.20;;;;;;;6.86;63.81;99756.59;4871937;29;20075;-79
2022/03/16 09:13:49;;;;;;;0.28;0.28;;;;;;;6.87;64.01;99747.59;4841201;29;20034;-79
2022/03/16 09:16:15;;;;;;;0.00;0.00;;;;;;;6.93;64.06;99751.13;4871982;29;20061;-79
2022/03/16 09:18:41;;;;;;;0.00;0.00;;;;;;;6.98;63.79;99747.78;4841189;29;20125;-79
2022/03/16 09:21:07;;;;;;;0.20;0.20;;;;;;;7.03;63.45;99747.88;4840831;29;20526;-79
2022/03/16 09:23:32;;;;;;;0.15;0.15;;;;;;;7.03;63.92;99738.06;4840916;29;20033;-79
2022/03/16 09:25:59;;;;;;;0.00;0.00;;;;;;;7.12;64.09;99732.38;4840635;29;20545;-79
2022/03/16 09:28:25;;;;;;;0.10;0.10;;;;;;;7.17;63.80;99735.94;4871932;29;20058;-79
2022/03/16 09:30:50;;;;;;;0.25;0.25;;;;;;;7.28;63.54;99728.16;4874531;29;20112;-79
2022/03/16 09:33:17;;;;;;;0.43;0.43;;;;;;;7.32;63.65;99727.47;4874636;29;20512;-79
2022/03/16 09:35:44;;;;;;;0.03;0.03;;;;;;;7.35;63.38;99736.81;4874743;29;20030;-78
2022/03/16 09:38:09;;;;;;;0.05;0.05;;;;;;;7.40;63.59;99738.75;4843613;29;20061;-78
2022/03/16 09:40:36;;;;;;;1.27;1.23;;;;;;;7.42;63.57;99734.00;4827135;29;20062;-77
2022/03/16 09:43:05;;;;;;;0.75;0.68;;;;;;;7.47;63.19;99729.59;4837616;29;20091;-80
2022/03/16 09:45:39;;;;;;;0.28;0.28;;;;;;;7.53;63.38;99733.97;4821667;29;20095;-78
2022/03/16 09:48:07;;;;;;;0.38;0.38;;;;;;;7.63;63.03;99722.69;4837144;29;20045;-78
2022/03/16 09:50:33;;;;;;;0.28;0.28;;;;;;;7.67;63.29;99717.69;4822278;29;20090;-77
2022/03/16 09:52:59;;;;;;;0.52;0.52;;;;;;;7.73;62.61;99708.75;4821867;29;20038;-79
2022/03/16 09:55:24;;;;;;;0.63;0.63;;;;;;;7.80;62.79;99698.75;4837089;29;20121;-79
2022/03/16 09:57:50;;;;;;;0.20;0.20;;;;;;;7.85;62.89;99695.38;4822051;29;20026;-79
2022/03/16 10:00:17;;;;;;;0.38;0.38;;;;;;;7.93;62.75;99694.16;4837238;29;20120;-80
2022/03/16 10:02:43;;;;;;;0.95;0.95;;;;;;;8.01;62.75;99694.53;4840154;29;20082;-79
2022/03/16 10:05:09;;;;;;;2.28;0.52;;;;;;;8.10;62.62;99680.81;4839964;29;20030;-79
2022/03/16 10:07:36;;;;;;;0.05;0.05;;;;;;;8.17;62.64;99687.59;4840212;29;20120;-80
2022/03/16 10:15:33;;;;;;;0.10;0.10;;;;;;;8.57;62.30;99676.94;4841397;29;20144;-79
2022/03/16 10:18:00;;;;;;;0.00;0.00;;;;;;;8.69;61.76;99669.66;4870650;29;20054;-79
2022/03/16 10:20:38;;;;;;;0.00;0.00;;;;;;;8.86;61.43;99666.13;4840022;29;20037;-79
2022/03/16 10:23:32;;;;;;;0.30;0.30;;;;;;;9.03;61.33;99669.50;4831613;29;20037;-79
2022/03/16 10:26:01;;;;;;;0.00;0.00;;;;;;;9.24;60.96;99680.41;4840513;29;20038;-79
2022/03/16 10:28:31;;;;;;;0.00;0.00;;;;;;;9.38;59.94;99675.47;4854934;29;20022;-80
2022/03/16 10:31:08;;;;;;;0.00;0.00;;;;;;;9.48;59.02;99672.09;4854811;29;20033;-79
2022/03/16 10:33:50;;;;;;;0.05;0.05;;;;;;;9.60;59.05;99673.53;4854982;29;20030;-79
2022/03/16 10:36:20;;;;;;;0.00;0.00;;;;;;;9.68;58.78;99663.44;4854772;29;20431;-78
2022/03/16 10:39:02;;;;;;;0.20;0.20;;;;;;;9.69;58.78;99657.06;4855060;29;20185;-78
2022/03/16 10:47:20;;;;;;;0.00;0.00;;;;;;;9.83;58.22;99668.13;4840518;29;20077;-79
2022/03/16 10:50:00;;;;;;;0.15;0.15;;;;;;;9.87;58.22;99658.53;4854784;29;20534;-78
2022/03/16 10:52:27;;;;;;;0.00;0.00;;;;;;;9.86;57.69;99654.25;4840317;29;20042;-78
2022/03/16 10:54:54;;;;;;;0.73;0.73;;;;;;;9.87;57.95;99651.31;4854339;29;20034;-78
2022/03/16 10:57:20;;;;;;;0.00;0.00;;;;;;;9.85;58.21;99645.44;4854596;29;20037;-79
2022/03/16 10:59:50;;;;;;;0.10;0.10;;;;;;;9.87;57.97;99647.84;4854652;29;20030;-79
2022/03/16 11:02:17;;;;;;;0.45;0.38;;;;;;;9.88;58.11;99646.78;4854357;29;20066;-78
2022/03/16 11:04:45;;;;;;;0.10;0.10;;;;;;;9.86;58.27;99644.38;4854579;29;20128;-79
2022/03/16 11:07:11;;;;;;;0.15;0.15;;;;;;;9.94;58.27;99640.41;4854447;29;20030;-78
2022/03/16 11:09:38;;;;;;;0.65;0.65;;;;;;;10.01;58.33;99635.66;4854525;29;20505;-79
2022/03/16 11:14:50;;;;;;;0.00;0.00;;;;;;;10.06;57.12;99633.00;4840429;29;20045;-78
2022/03/16 11:17:16;;;;;;;0.00;0.00;;;;;;;10.08;57.10;99627.41;4840358;29;20042;-78
2022/03/16 11:19:44;;;;;;;0.22;0.22;;;;;;;10.15;57.24;99619.16;4869599;29;20030;-78
2022/03/16 11:22:29;;;;;;;0.00;0.00;;;;;;;10.20;57.02;99617.31;4839909;29;20026;-80
2022/03/16 11:25:19;;;;;;;0.00;0.00;;;;;;;10.25;56.48;99608.53;4838972;29;20047;-78
2022/03/16 11:27:53;;;;;;;0.10;0.10;;;;;;;10.30;56.59;99605.91;4869673;29;20129;-79
2022/03/16 11:30:33;;;;;;;0.00;0.00;;;;;;;10.38;55.23;99596.59;4869344;29;20396;-80
2022/03/16 11:33:12;;;;;;;0.10;0.10;;;;;;;10.29;53.79;99596.25;4869361;29;20067;-80
2022/03/16 11:35:44;;;;;;;0.32;0.32;;;;;;;10.24;54.03;99597.03;4869876;29;20058;-79
2022/03/16 11:38:15;;;;;;;0.00;0.00;;;;;;;10.29;53.88;99598.13;4838681;29;20034;-80
2022/03/16 11:40:43;;;;;;;0.00;0.00;;;;;;;10.29;53.13;99603.47;4869748;29;20038;-79
2022/03/16 11:43:11;;;;;;;1.77;1.67;;;;;;;10.32;52.74;99592.25;4838667;29;20065;-79
2022/03/16 11:45:38;;;;;;;0.40;0.40;;;;;;;10.35;52.45;99587.19;4840099;29;20112;-79
2022/03/16 11:48:31;;;;;;;0.10;0.10;;;;;;;10.48;51.91;99599.28;4838445;29;20267;-79
2022/03/16 11:51:08;;;;;;;0.20;0.20;;;;;;;10.52;52.60;99596.91;4869337;29;20025;-79
2022/03/16 11:53:46;;;;;;;0.15;0.15;;;;;;;10.55;55.69;99599.88;4869340;29;20034;-80
2022/03/16 11:56:34;;;;;;;0.00;0.00;;;;;;;10.56;56.15;99598.81;4869383;29;20037;-79
2022/03/16 11:59:03;;;;;;;;;;;;;;;10.63;55.71;99595.06;4842016;29;20704;-79
2022/03/16 12:01:39;;;;;;;0.00;0.00;;;;;;;10.66;55.31;99591.88;4838746;29;19916;-80
2022/03/16 12:04:35;;;;;;;0.35;0.35;;;;;;;10.78;55.00;99597.81;4838175;29;20042;-80
2022/03/16 12:07:08;;;;;;;0.00;0.00;;;;;;;10.85;54.68;99584.97;4838082;29;20076;-77
2022/03/16 12:09:47;;;;;;;2.08;1.75;;;;;;;10.94;54.73;99589.81;4872868;29;20124;-81
2022/03/16 12:15:11;;;;;;;0.95;0.95;;;;;;;10.98;54.74;99588.22;4842564;29;20110;-79
2022/03/16 12:18:00;;;;;;;0.00;0.00;;;;;;;10.94;53.41;99579.91;4856678;29;20072;-80
2022/03/16 12:20:31;;;;;;;0.43;0.43;;;;;;;10.94;53.56;99576.44;4825253;29;20049;-80
2022/03/16 12:23:02;;;;;;;0.17;0.17;;;;;;;10.92;52.88;99563.31;4856624;29;20026;-79
2022/03/16 12:25:35;;;;;;;0.30;0.30;;;;;;;10.93;48.11;99567.59;4856677;29;20064;-79
2022/03/16 12:31:07;;;;;;;0.00;0.00;;;;;;;10.85;50.44;99552.88;4842527;29;20578;-80
2022/03/16 12:33:37;;;;;;;0.20;0.20;;;;;;;10.80;51.26;99546.69;4856924;29;20413;-80
2022/03/16 12:36:11;;;;;;;0.52;0.52;;;;;;;10.68;51.89;99549.59;4856456;29;20045;-80
2022/03/16 12:38:39;;;;;;;0.10;0.10;;;;;;;10.65;52.36;99542.91;4856957;29;20475;-78
2022/03/16 12:43:54;;;;;;;0.00;0.00;;;;;;;10.51;52.80;99547.16;4842786;29;20049;-78
2022/03/16 12:46:24;;;;;;;0.32;0.32;;;;;;;10.47;53.20;99551.44;4856212;29;20042;-79
2022/03/16 12:48:55;;;;;;;1.23;1.02;;;;;;;10.36;53.84;99556.75;4856599;29;20498;-79
2022/03/16 12:51:40;;;;;;;0.10;0.10;;;;;;;10.29;52.38;99564.19;4856360;29;20049;-80
2022/03/16 12:54:07;;;;;;;0.15;0.15;;;;;;;10.25;52.95;99574.59;4842555;29;20060;-79
2022/03/16 12:56:43;;;;;;;0.77;0.77;;;;;;;10.22;52.04;99572.44;4856569;29;20550;-79
2022/03/16 12:59:11;;;;;;;0.00;0.00;;;;;;;10.15;52.48;99571.06;4856420;29;20088;-79
2022/03/16 13:01:36;;;;;;;0.10;0.10;;;;;;;10.04;52.93;99562.19;4856555;29;20036;-79
2022/03/16 13:04:05;;;;;;;0.30;0.30;;;;;;;9.97;53.02;99570.41;4856372;29;20034;-79
2022/03/16 13:06:34;;;;;;;0.38;0.38;;;;;;;9.92;53.16;99568.53;4856397;29;20117;-79
2022/03/16 13:09:18;;;;;;;0.00;0.00;;;;;;;9.81;52.47;99564.19;4856174;29;20034;-79
2022/03/16 13:11:45;;;;;;;0.28;0.28;;;;;;;9.85;52.79;99580.50;4856460;29;20094;-79
2022/03/16 13:14:19;;;;;;;0.08;0.08;;;;;;;9.77;52.50;99574.56;4855988;29;20030;-79
2022/03/16 13:16:47;;;;;;;0.10;0.10;;;;;;;9.78;52.18;99580.75;4856210;29;20103;-79
2022/03/16 13:19:24;;;;;;;0.10;0.10;;;;;;;9.71;52.72;99575.59;4841374;29;20090;-79
2022/03/16 13:22:05;;;;;;;0.80;0.80;;;;;;;9.69;52.61;99569.75;4856201;29;20061;-78
2022/03/16 13:24:33;;;;;;;0.47;0.45;;;;;;;9.64;52.95;99566.22;4842117;29;20436;-79
2022/03/16 13:27:01;;;;;;;0.00;0.00;;;;;;;9.59;53.72;99572.31;4856115;29;20038;-79
2022/03/16 13:29:30;;;;;;;0.10;0.10;;;;;;;9.53;53.93;99574.16;4855713;29;20058;-79
2022/03/16 13:31:58;;;;;;;0.68;0.68;;;;;;;9.51;53.73;99559.44;4855866;29;20063;-79
2022/03/16 13:34:26;;;;;;;0.52;0.40;;;;;;;9.47;55.28;99543.13;4855650;29;20076;-79
2022/03/16 13:36:52;;;;;;;0.00;0.00;;;;;;;9.35;54.63;99540.66;4855879;29;20487;-79
2022/03/16 13:39:31;;;;;;;0.63;0.63;;;;;;;9.21;54.99;99526.13;4855766;29;20471;-79
2022/03/16 13:42:13;;;;;;;0.10;0.10;;;;;;;9.09;55.71;99524.44;4856080;29;20034;-79
2022/03/16 13:44:53;;;;;;;0.17;0.17;;;;;;;9.01;56.30;99510.75;4856025;29;20040;-79
2022/03/16 13:47:18;;;;;;;0.30;0.30;;;;;;;8.96;57.41;99511.53;4841973;29;20050;-80
2022/03/16 13:49:46;;;;;;;0.10;0.10;;;;;;;8.90;57.05;99507.19;4856261;29;20026;-79
2022/03/16 13:52:13;;;;;;;4.95;2.30;;;;;;;8.86;56.59;99511.41;4855789;29;20033;-80
2022/03/16 13:54:41;;;;;;;0.10;0.10;;;;;;;8.83;57.17;99507.41;4856077;29;20129;-80
2022/03/16 13:57:11;;;;;;;0.35;0.35;;;;;;;8.79;57.51;99500.97;4855574;29;20038;-79
2022/03/16 13:59:38;;;;;;;0.00;0.00;;;;;;;8.79;58.10;99493.75;4856064;29;20026;-79
2022/03/16 14:02:23;;;;;;;6.93;0.75;;;;;;;8.75;58.30;99479.34;4856013;29;20034;-79
2022/03/16 14:04:58;;;;;;;1.23;1.08;;;;;;;8.76;58.32;99470.28;4855856;29;20563;-79
2022/03/16 14:07:33;;;;;;;0.52;0.52;;;;;;;8.70;60.21;99473.16;4855474;29;20391;-80
2022/03/16 14:10:01;;;;;;;0.75;0.75;;;;;;;8.63;60.95;99476.03;4856129;29;20034;-81
2022/03/16 14:12:33;;;;;;;0.63;0.63;;;;;;;8.63;62.18;99476.81;4855669;29;20033;-80
2022/03/16 14:15:16;;;;;;;0.75;0.75;;;;;;;8.65;62.28;99496.03;4856182;29;20030;-79
2022/03/16 14:17:58;;;;;;;0.00;0.00;;;;;;;8.73;62.60;99504.66;4856044;29;20030;-79
2022/03/16 14:20:30;;;;;;;0.40;0.40;;;;;;;8.85;62.53;99505.28;4841417;29;20033;-79
2022/03/16 14:22:57;;;;;;;0.88;0.88;;;;;;;8.87;62.55;99519.16;4855369;29;20038;-80
2022/03/16 14:25:29;;;;;;;0.77;0.77;;;;;;;8.92;62.20;99529.91;4854855;29;20022;-79
2022/03/16 14:28:00;;;;;;;0.10;0.10;;;;;;;9.00;61.72;99523.28;4855015;29;20491;-79
2022/03/16 14:30:28;;;;;;;0.40;0.40;;;;;;;9.06;61.10;99514.28;4854252;29;20054;-79
2022/03/16 14:33:00;;;;;;;0.10;0.10;;;;;;;9.11;61.37;99522.31;4855008;29;20033;-79
2022/03/16 14:35:28;;;;;;;0.40;0.40;;;;;;;9.17;61.63;99517.81;4855082;29;20054;-79
2022/03/16 14:37:55;;;;;;;0.30;0.30;;;;;;;9.11;61.70;99508.97;4854991;29;20090;-79
2022/03/16 14:40:22;;;;;;;0.00;0.00;;;;;;;9.13;61.24;99514.88;4840643;29;20029;-79
2022/03/16 14:42:54;;;;;;;0.43;0.43;;;;;;;9.10;58.31;99511.91;4855050;29;20048;-79
2022/03/16 14:45:20;;;;;;;2.30;2.20;;;;;;;9.06;57.15;99514.28;4854726;29;20030;-79
2022/03/16 14:47:46;;;;;;;0.00;0.00;;;;;;;9.00;55.04;99520.63;4854969;29;20034;-79
2022/03/16 14:50:12;;;;;;;0.13;0.13;;;;;;;8.96;54.04;99512.31;4840260;29;20034;-79
2022/03/16 14:52:38;;;;;;;0.10;0.10;;;;;;;8.91;54.15;99525.63;4854905;29;20038;-79
2022/03/16 14:55:05;;;;;;;0.00;0.00;;;;;;;8.92;54.82;99534.41;4840563;29;20121;-79
2022/03/16 14:57:31;;;;;;;0.10;0.10;;;;;;;8.88;55.31;99523.44;4854727;29;20498;-79
2022/03/16 14:59:57;;;;;;;0.10;0.10;;;;;;;8.81;56.24;99514.84;4854670;29;20053;-79
2022/03/16 15:02:24;;;;;;;0.00;0.00;;;;;;;8.88;56.28;99533.31;4854391;29;20026;-79
2022/03/16 15:04:50;;;;;;;0.00;0.00;;;;;;;8.91;56.62;99530.13;4840148;29;20511;-79
2022/03/16 15:07:16;;;;;;;0.10;0.10;;;;;;;8.94;56.73;99540.31;4854246;29;20163;-79
2022/03/16 15:09:42;;;;;;;0.10;0.10;;;;;;;8.93;57.25;99530.69;4840658;29;20030;-79
2022/03/16 15:12:07;;;;;;;0.00;0.00;;;;;;;8.91;57.44;99512.28;4854315;29;20041;-79
2022/03/16 15:14:33;;;;;;;0.00;0.00;;;;;;;8.90;57.31;99516.00;4854502;29;20026;-79
2022/03/16 15:16:58;;;;;;;0.10;0.10;;;;;;;8.86;58.21;99522.91;4854223;29;20030;-79
2022/03/16 15:19:24;;;;;;;0.73;0.73;;;;;;;8.87;58.21;99521.81;4854617;29;20037;-79
2022/03/16 15:21:50;;;;;;;0.00;0.00;;;;;;;8.85;57.88;99526.63;4840720;29;20513;-79
2022/03/16 15:24:15;;;;;;;0.00;0.00;;;;;;;8.84;58.74;99529.53;4854196;29;20030;-79
2022/03/16 15:26:41;;;;;;;0.00;0.00;;;;;;;8.84;58.83;99527.69;4854412;29;20038;-79
2022/03/16 15:29:09;;;;;;;0.22;0.22;;;;;;;8.86;58.86;99528.25;4853978;29;20151;-79
2022/03/16 15:31:36;;;;;;;0.35;0.35;;;;;;;8.88;59.18;99538.66;4854111;29;20026;-79
2022/03/16 15:34:05;;;;;;;0.00;0.00;;;;;;;8.89;59.20;99535.72;4854221;29;20058;-79
2022/03/16 15:36:31;;;;;;;;;;;;;;;8.90;58.62;99528.50;4854749;29;20042;-79
2022/03/16 15:38:56;;;;;;;0.00;0.00;;;;;;;8.84;59.30;99530.34;4854280;29;20297;-79
2022/03/16 15:44:06;;;;;;;0.00;0.00;;;;;;;8.85;59.57;99529.28;4843666;29;20513;-79
2022/03/16 15:46:31;;;;;;;0.30;0.30;;;;;;;8.86;59.22;99536.25;4857917;29;20026;-80
2022/03/16 15:48:58;;;;;;;0.00;0.00;;;;;;;8.87;59.73;99537.03;4857849;29;20102;-79
2022/03/16 15:51:24;;;;;;;0.00;0.00;;;;;;;8.89;59.32;99532.25;4857833;29;20057;-80
2022/03/16 15:53:50;;;;;;;0.00;0.00;;;;;;;8.91;59.17;99528.28;4843371;29;20072;-79
2022/03/16 15:56:15;;;;;;;0.00;0.00;;;;;;;8.95;59.18;99533.91;4857621;29;20030;-79
2022/03/16 15:58:41;;;;;;;0.00;0.00;;;;;;;8.97;58.98;99531.78;4857655;29;20133;-78
2022/03/16 16:01:07;;;;;;;0.00;0.00;;;;;;;8.96;58.25;99530.19;4857381;29;20482;-78
2022/03/16 16:03:33;;;;;;;0.00;0.00;;;;;;;8.97;57.67;99519.28;4857734;29;20038;-80
2022/03/16 16:06:02;;;;;;;0.00;0.00;;;;;;;8.98;57.21;99520.06;4857549;29;20034;-80
2022/03/16 16:08:29;;;;;;;0.15;0.15;;;;;;;8.97;56.67;99519.28;4857591;29;20061;-80
2022/03/16 16:11:07;;;;;;;0.00;0.00;;;;;;;8.98;55.48;99525.41;4843510;29;20109;-80
2022/03/16 16:13:34;;;;;;;0.00;0.00;;;;;;;8.97;55.41;99521.13;4857504;29;20430;-80
2022/03/16 16:15:59;;;;;;;0.00;0.00;;;;;;;8.94;54.94;99506.41;4857381;29;20026;-80
2022/03/16 16:18:25;;;;;;;0.00;0.00;;;;;;;8.96;55.38;99506.97;4857134;29;20038;-79
2022/03/16 16:20:50;;;;;;;0.00;0.00;;;;;;;8.99;55.44;99504.88;4843274;29;20030;-79
2022/03/16 16:23:16;;;;;;;0.00;0.00;;;;;;;8.96;55.38;99506.97;4842857;29;20034;-79
2022/03/16 16:25:42;;;;;;;0.00;0.00;;;;;;;8.98;55.74;99501.38;4857240;29;20029;-79
2022/03/16 16:28:11;;;;;;;0.00;0.00;;;;;;;8.99;56.28;99516.34;4846156;29;20041;-79
2022/03/16 16:30:37;;;;;;;0.25;0.25;;;;;;;8.95;56.71;99515.25;4838770;29;20203;-85
2022/03/16 16:33:04;;;;;;;0.00;0.00;;;;;;;8.93;56.93;99515.47;4838948;29;20046;-80
2022/03/16 16:35:30;;;;;;;0.00;0.00;;;;;;;8.94;56.80;99521.63;4838526;29;20027;-79
2022/03/16 16:37:55;;;;;;;0.00;0.00;;;;;;;8.93;57.45;99526.16;4854929;29;20517;-81
2022/03/16 16:40:22;;;;;;;0.00;0.00;;;;;;;8.93;57.26;99520.03;4825390;29;20041;-79
2022/03/16 16:45:34;;;;;;;0.00;0.00;;;;;;;8.90;56.88;99517.84;4842956;29;20178;-79
2022/03/16 16:48:00;;;;;;;0.00;0.00;;;;;;;8.85;57.32;99515.13;4826225;29;20061;-79
2022/03/16 16:50:27;;;;;;;0.00;0.00;;;;;;;8.84;56.97;99513.53;4858793;29;20102;-78
2022/03/16 16:52:53;;;;;;;0.00;0.00;;;;;;;8.84;56.64;99516.19;4852802;29;20038;-79
2022/03/16 16:55:19;;;;;;;0.00;0.00;;;;;;;8.80;57.14;99532.72;4845770;29;20025;-79
2022/03/16 16:57:45;;;;;;;0.00;0.00;;;;;;;8.76;57.13;99530.78;4854112;29;20037;-78
2022/03/16 17:00:11;;;;;;;0.57;0.57;;;;;;;8.76;57.53;99530.78;4867080;29;20434;-80
2022/03/16 17:02:38;;;;;;;0.00;0.00;;;;;;;8.79;56.91;99525.75;4834288;29;20106;-77
2022/03/16 17:05:09;;;;;;;0.00;0.00;;;;;;;8.78;57.11;99520.69;4841952;29;20057;-76
2022/03/16 17:07:37;;;;;;;0.10;0.10;;;;;;;8.73;56.67;99509.97;4842064;29;20030;-77
2022/03/16 17:10:04;;;;;;;0.57;0.57;;;;;;;8.70;56.28;99524.59;4845647;29;20422;-79
2022/03/16 17:12:29;;;;;;;0.00;0.00;;;;;;;8.63;55.44;99521.34;4857069;29;20026;-78
2022/03/16 17:14:55;;;;;;;0.00;0.00;;;;;;;8.57;55.39;99512.50;4851635;29;20396;-76
2022/03/16 17:17:21;;;;;;;0.50;0.50;;;;;;;8.57;55.31;99525.00;4841275;29;20503;-77
2022/03/16 17:19:49;;;;;;;0.00;0.00;;;;;;;8.55;55.59;99530.59;4841669;29;20037;-79
2022/03/16 17:22:15;;;;;;;0.00;0.00;;;;;;;8.54;55.90;99528.97;4829450;29;20573;-79
2022/03/16 17:24:42;;;;;;;0.68;0.68;;;;;;;8.52;56.42;99535.59;4858766;29;20034;-78